Ellicottville, NY

6:37 AM EDT on June 03, 2015 (GMT -0400)
Near Base of Holiday Valley | | Change Station
CLOSE
Current Station
Personal Weather Station
Location: Ellicottville, NY
Elevation: 1512 ft
Nearby Weather Stations
Active Advisory: Special Statement

Elev 1512 ft 42.26 °N, 78.64 °W | Updated 4 minutes ago

Mostly Cloudy
Mostly Cloudy
37.8 °F
Feels Like 38 °F
N
0.0
Wind Variable Wind from WNW

Today
High -- | Low -- °F
--% Chance of Precip.
Yesterday
High -- | Low -- °F
Precip. -- in
5:39 AM 8:46 PM
Full, 99% visible
Pressure 30.20 in
Visibility 0.2 miles
Clouds Overcast 200 ft
Windchill 38 °F
Dew Point 38 °F
Humidity 99%
Rainfall 0.00 in
Snow Depth Not available.
UV 0 out of 12
Pollen 9.10 out of 12
Air Quality Not available.
Flu Activity Sporadic
METAR KOLE 031015Z AUTO 08005KT M1/4SM FG OVC002 02/02 A3020 RMK AO2

More Conditions Fewer Conditions

Pressure 30.20 in
Visibility 0.2 miles
Clouds Overcast 200 ft
Windchill 38 °F
Dew Point 38 °F
Humidity 99%
Rainfall 0.00 in
Snow Depth Not available.
UV 0 out of 12
Pollen 9.10 out of 12
Air Quality Not available.
Flu Activity Sporadic
METAR KOLE 031015Z AUTO 08005KT M1/4SM FG OVC002 02/02 A3020 RMK AO2

More Conditions Fewer Conditions

10-Day Weather Forecast

×

Almanac

Astronomy

Jun. 03, 2015 Rise Set
Actual Time
Civil Twilight
Nautical Twilight
Astronomical Twilight
Moon
Length of Visible Light
Length of Day
Tomorrow will be .
, % of the Moon is Illuminated

Today's Extremes

State Highs State Lows

Community

WunderPhotos

Upload Photos

1,826,198 photos uploaded!

WunderBlogs® & News

Nearby

Air Quality

  Air Quality AQ Index Pollutant
Not available.

Snow Depth

Station Depth Elevation

Earthquake Activity

City Distance Mag. Time & Date
Minimum magnitude displayed is 2.5.

Coastal Water Temperatures

Place Temperature

Stations

Nearby Weather Stations

Station Location Temp. Windchill Dew Point Humidity Wind Precip. Elev Updated Type
                   
Special Statement
Statement as of 5:49 AM EDT on June 03, 2015

... Patchy dense fog across interior portions of the southern tier
this morning...

Patchy dense fog across portions of Wyoming ... Livingston...
Cattaraugus and Allegany counties will persist through 8 am. Use
caution and reduce speed accordingly while traveling on area
roadways early this morning as visibility may decrease rapidly
over mountain passes and in low lying valleys.

Routes impacted include...
Interstate 86
U.S. Route 219
Interstate 390



Church